sensor_id;sensor_type;location;lat;lon;timestamp;P1;durP1;ratioP1;P2;durP2;ratioP2
38859;SDS011;24609;48.316;16.174;2022-12-07T00:01:05;10.40;;;6.82;;
38859;SDS011;24609;48.316;16.174;2022-12-07T00:03:31;16.80;;;7.97;;
38859;SDS011;24609;48.316;16.174;2022-12-07T00:05:57;13.35;;;7.18;;
38859;SDS011;24609;48.316;16.174;2022-12-07T00:08:23;17.05;;;7.75;;
38859;SDS011;24609;48.316;16.174;2022-12-07T00:10:49;12.63;;;7.15;;
38859;SDS011;24609;48.316;16.174;2022-12-07T00:13:15;16.30;;;8.35;;
38859;SDS011;24609;48.316;16.174;2022-12-07T00:15:40;9.40;;;6.15;;
38859;SDS011;24609;48.316;16.174;2022-12-07T00:18:06;14.93;;;7.00;;
38859;SDS011;24609;48.316;16.174;2022-12-07T00:20:32;15.60;;;8.77;;
38859;SDS011;24609;48.316;16.174;2022-12-07T00:22:58;16.50;;;8.52;;
38859;SDS011;24609;48.316;16.174;2022-12-07T00:25:24;15.35;;;8.02;;
38859;SDS011;24609;48.316;16.174;2022-12-07T00:27:50;11.77;;;7.28;;
38859;SDS011;24609;48.316;16.174;2022-12-07T00:30:16;11.65;;;6.13;;
38859;SDS011;24609;48.316;16.174;2022-12-07T00:32:42;15.43;;;8.07;;
38859;SDS011;24609;48.316;16.174;2022-12-07T00:35:08;12.65;;;7.22;;
38859;SDS011;24609;48.316;16.174;2022-12-07T00:37:33;18.08;;;8.25;;
38859;SDS011;24609;48.316;16.174;2022-12-07T00:39:59;14.02;;;7.32;;
38859;SDS011;24609;48.316;16.174;2022-12-07T00:42:25;23.33;;;8.18;;
38859;SDS011;24609;48.316;16.174;2022-12-07T00:44:50;18.38;;;9.70;;
38859;SDS011;24609;48.316;16.174;2022-12-07T00:47:16;13.52;;;7.80;;
38859;SDS011;24609;48.316;16.174;2022-12-07T00:49:42;15.35;;;8.65;;
38859;SDS011;24609;48.316;16.174;2022-12-07T00:52:07;14.60;;;7.75;;
38859;SDS011;24609;48.316;16.174;2022-12-07T00:54:33;18.27;;;7.75;;
38859;SDS011;24609;48.316;16.174;2022-12-07T00:56:58;18.83;;;9.02;;
38859;SDS011;24609;48.316;16.174;2022-12-07T00:59:24;19.70;;;10.13;;
38859;SDS011;24609;48.316;16.174;2022-12-07T01:01:50;16.55;;;9.00;;
38859;SDS011;24609;48.316;16.174;2022-12-07T01:04:15;17.77;;;9.32;;
38859;SDS011;24609;48.316;16.174;2022-12-07T01:06:41;19.55;;;9.15;;
38859;SDS011;24609;48.316;16.174;2022-12-07T01:09:06;18.92;;;8.55;;
38859;SDS011;24609;48.316;16.174;2022-12-07T01:11:32;14.77;;;8.80;;
38859;SDS011;24609;48.316;16.174;2022-12-07T01:13:59;19.25;;;8.85;;
38859;SDS011;24609;48.316;16.174;2022-12-07T01:16:26;15.90;;;8.10;;
38859;SDS011;24609;48.316;16.174;2022-12-07T01:18:53;14.82;;;8.18;;
38859;SDS011;24609;48.316;16.174;2022-12-07T01:21:30;18.45;;;8.93;;
38859;SDS011;24609;48.316;16.174;2022-12-07T01:24:00;22.83;;;10.38;;
38859;SDS011;24609;48.316;16.174;2022-12-07T01:26:27;19.83;;;9.63;;
38859;SDS011;24609;48.316;16.174;2022-12-07T01:28:53;22.70;;;9.40;;
38859;SDS011;24609;48.316;16.174;2022-12-07T01:31:20;17.38;;;8.50;;
38859;SDS011;24609;48.316;16.174;2022-12-07T01:33:51;19.60;;;9.32;;
38859;SDS011;24609;48.316;16.174;2022-12-07T01:36:21;16.58;;;7.75;;
38859;SDS011;24609;48.316;16.174;2022-12-07T01:41:17;12.27;;;8.30;;
38859;SDS011;24609;48.316;16.174;2022-12-07T01:46:34;10.45;;;6.63;;
38859;SDS011;24609;48.316;16.174;2022-12-07T01:49:00;16.67;;;9.15;;
38859;SDS011;24609;48.316;16.174;2022-12-07T01:51:27;20.08;;;10.43;;
38859;SDS011;24609;48.316;16.174;2022-12-07T01:53:53;15.85;;;8.65;;
38859;SDS011;24609;48.316;16.174;2022-12-07T01:56:20;15.68;;;8.95;;
38859;SDS011;24609;48.316;16.174;2022-12-07T01:58:49;23.45;;;10.18;;
38859;SDS011;24609;48.316;16.174;2022-12-07T02:01:16;20.63;;;8.63;;
38859;SDS011;24609;48.316;16.174;2022-12-07T02:03:43;20.50;;;9.02;;
38859;SDS011;24609;48.316;16.174;2022-12-07T02:06:10;15.40;;;7.95;;
38859;SDS011;24609;48.316;16.174;2022-12-07T02:08:41;17.63;;;8.43;;
38859;SDS011;24609;48.316;16.174;2022-12-07T02:11:07;19.15;;;8.88;;
38859;SDS011;24609;48.316;16.174;2022-12-07T02:13:35;15.65;;;8.38;;
38859;SDS011;24609;48.316;16.174;2022-12-07T02:18:46;16.80;;;8.18;;
38859;SDS011;24609;48.316;16.174;2022-12-07T02:21:42;16.08;;;8.32;;
38859;SDS011;24609;48.316;16.174;2022-12-07T02:27:27;15.80;;;7.97;;
38859;SDS011;24609;48.316;16.174;2022-12-07T02:30:00;16.25;;;7.93;;
38859;SDS011;24609;48.316;16.174;2022-12-07T02:35:07;13.93;;;7.45;;
38859;SDS011;24609;48.316;16.174;2022-12-07T02:42:51;13.90;;;6.35;;
38859;SDS011;24609;48.316;16.174;2022-12-07T02:45:22;12.15;;;6.43;;
38859;SDS011;24609;48.316;16.174;2022-12-07T02:47:52;12.07;;;7.38;;
38859;SDS011;24609;48.316;16.174;2022-12-07T02:50:20;14.10;;;7.45;;
38859;SDS011;24609;48.316;16.174;2022-12-07T02:52:46;15.77;;;8.85;;
38859;SDS011;24609;48.316;16.174;2022-12-07T02:55:12;15.05;;;8.00;;
38859;SDS011;24609;48.316;16.174;2022-12-07T02:57:53;16.97;;;8.00;;
38859;SDS011;24609;48.316;16.174;2022-12-07T03:00:26;12.00;;;7.82;;
38859;SDS011;24609;48.316;16.174;2022-12-07T03:11:39;14.45;;;7.15;;
38859;SDS011;24609;48.316;16.174;2022-12-07T03:16:43;12.75;;;6.88;;
38859;SDS011;24609;48.316;16.174;2022-12-07T03:19:17;16.00;;;7.18;;
38859;SDS011;24609;48.316;16.174;2022-12-07T03:21:46;15.93;;;7.13;;
38859;SDS011;24609;48.316;16.174;2022-12-07T03:24:18;14.43;;;7.95;;
38859;SDS011;24609;48.316;16.174;2022-12-07T03:26:51;18.10;;;7.22;;
38859;SDS011;24609;48.316;16.174;2022-12-07T03:29:27;19.40;;;7.65;;
38859;SDS011;24609;48.316;16.174;2022-12-07T03:32:05;16.00;;;7.88;;
38859;SDS011;24609;48.316;16.174;2022-12-07T03:34:53;11.98;;;6.82;;
38859;SDS011;24609;48.316;16.174;2022-12-07T03:37:59;13.73;;;6.65;;
38859;SDS011;24609;48.316;16.174;2022-12-07T03:40:39;12.57;;;6.82;;
38859;SDS011;24609;48.316;16.174;2022-12-07T03:43:10;16.40;;;8.35;;
38859;SDS011;24609;48.316;16.174;2022-12-07T03:50:47;12.60;;;7.35;;
38859;SDS011;24609;48.316;16.174;2022-12-07T03:53:30;18.63;;;9.35;;
38859;SDS011;24609;48.316;16.174;2022-12-07T03:56:08;16.42;;;7.55;;
38859;SDS011;24609;48.316;16.174;2022-12-07T03:58:35;14.05;;;6.97;;
38859;SDS011;24609;48.316;16.174;2022-12-07T04:01:02;15.38;;;7.65;;
38859;SDS011;24609;48.316;16.174;2022-12-07T04:03:28;15.10;;;8.07;;
38859;SDS011;24609;48.316;16.174;2022-12-07T04:05:53;12.50;;;7.45;;
38859;SDS011;24609;48.316;16.174;2022-12-07T04:08:19;17.88;;;7.97;;
38859;SDS011;24609;48.316;16.174;2022-12-07T04:10:45;15.68;;;7.97;;
38859;SDS011;24609;48.316;16.174;2022-12-07T04:13:11;12.50;;;7.70;;
38859;SDS011;24609;48.316;16.174;2022-12-07T04:15:37;14.85;;;7.82;;
38859;SDS011;24609;48.316;16.174;2022-12-07T04:18:02;15.65;;;7.45;;
38859;SDS011;24609;48.316;16.174;2022-12-07T04:20:28;10.70;;;6.32;;
38859;SDS011;24609;48.316;16.174;2022-12-07T04:22:54;9.55;;;5.90;;
38859;SDS011;24609;48.316;16.174;2022-12-07T04:25:19;11.23;;;6.13;;
38859;SDS011;24609;48.316;16.174;2022-12-07T04:27:45;17.02;;;7.05;;
38859;SDS011;24609;48.316;16.174;2022-12-07T04:30:11;13.13;;;7.22;;
38859;SDS011;24609;48.316;16.174;2022-12-07T04:32:36;16.98;;;7.50;;
38859;SDS011;24609;48.316;16.174;2022-12-07T04:35:02;13.60;;;5.10;;
38859;SDS011;24609;48.316;16.174;2022-12-07T04:37:29;10.95;;;6.63;;
38859;SDS011;24609;48.316;16.174;2022-12-07T04:39:54;12.90;;;7.15;;
38859;SDS011;24609;48.316;16.174;2022-12-07T04:42:20;12.35;;;5.82;;
38859;SDS011;24609;48.316;16.174;2022-12-07T04:44:45;9.95;;;5.32;;
38859;SDS011;24609;48.316;16.174;2022-12-07T04:47:11;14.02;;;5.00;;
38859;SDS011;24609;48.316;16.174;2022-12-07T04:49:37;11.65;;;5.63;;
38859;SDS011;24609;48.316;16.174;2022-12-07T04:52:03;11.30;;;6.30;;
38859;SDS011;24609;48.316;16.174;2022-12-07T04:54:28;12.60;;;5.95;;
38859;SDS011;24609;48.316;16.174;2022-12-07T04:56:54;12.98;;;6.68;;
38859;SDS011;24609;48.316;16.174;2022-12-07T04:59:20;10.02;;;6.07;;
38859;SDS011;24609;48.316;16.174;2022-12-07T05:01:45;13.70;;;5.88;;
38859;SDS011;24609;48.316;16.174;2022-12-07T05:04:11;15.25;;;6.50;;
38859;SDS011;24609;48.316;16.174;2022-12-07T05:06:38;9.95;;;5.82;;
38859;SDS011;24609;48.316;16.174;2022-12-07T05:09:04;12.20;;;6.40;;
38859;SDS011;24609;48.316;16.174;2022-12-07T05:11:29;12.00;;;5.57;;
38859;SDS011;24609;48.316;16.174;2022-12-07T05:14:06;12.35;;;5.90;;
38859;SDS011;24609;48.316;16.174;2022-12-07T05:16:36;11.35;;;6.15;;
38859;SDS011;24609;48.316;16.174;2022-12-07T05:19:02;9.45;;;5.45;;
38859;SDS011;24609;48.316;16.174;2022-12-07T05:21:28;10.18;;;6.47;;
38859;SDS011;24609;48.316;16.174;2022-12-07T05:23:54;13.98;;;5.82;;
38859;SDS011;24609;48.316;16.174;2022-12-07T05:26:20;10.52;;;6.10;;
38859;SDS011;24609;48.316;16.174;2022-12-07T05:28:49;12.60;;;6.63;;
38859;SDS011;24609;48.316;16.174;2022-12-07T05:31:20;13.23;;;5.70;;
38859;SDS011;24609;48.316;16.174;2022-12-07T05:33:46;8.45;;;5.05;;
38859;SDS011;24609;48.316;16.174;2022-12-07T05:36:12;9.02;;;4.28;;
38859;SDS011;24609;48.316;16.174;2022-12-07T05:38:38;12.60;;;6.68;;
38859;SDS011;24609;48.316;16.174;2022-12-07T05:41:05;9.68;;;4.72;;
38859;SDS011;24609;48.316;16.174;2022-12-07T05:43:31;11.75;;;5.75;;
38859;SDS011;24609;48.316;16.174;2022-12-07T05:45:58;9.05;;;5.40;;
38859;SDS011;24609;48.316;16.174;2022-12-07T05:48:24;8.65;;;4.55;;
38859;SDS011;24609;48.316;16.174;2022-12-07T05:50:50;10.95;;;5.68;;
38859;SDS011;24609;48.316;16.174;2022-12-07T05:53:16;10.82;;;5.68;;
38859;SDS011;24609;48.316;16.174;2022-12-07T05:55:43;8.82;;;5.18;;
38859;SDS011;24609;48.316;16.174;2022-12-07T05:58:09;10.30;;;6.15;;
38859;SDS011;24609;48.316;16.174;2022-12-07T06:00:54;11.77;;;5.10;;
38859;SDS011;24609;48.316;16.174;2022-12-07T06:03:20;9.13;;;5.35;;
38859;SDS011;24609;48.316;16.174;2022-12-07T06:05:46;12.73;;;5.85;;
38859;SDS011;24609;48.316;16.174;2022-12-07T06:08:11;7.80;;;4.88;;
38859;SDS011;24609;48.316;16.174;2022-12-07T06:10:37;10.05;;;5.25;;
38859;SDS011;24609;48.316;16.174;2022-12-07T06:13:03;9.38;;;4.75;;
38859;SDS011;24609;48.316;16.174;2022-12-07T06:15:28;10.82;;;5.53;;
38859;SDS011;24609;48.316;16.174;2022-12-07T06:17:54;8.27;;;5.25;;
38859;SDS011;24609;48.316;16.174;2022-12-07T06:20:20;9.05;;;5.45;;
38859;SDS011;24609;48.316;16.174;2022-12-07T06:22:45;9.23;;;6.97;;
38859;SDS011;24609;48.316;16.174;2022-12-07T06:25:11;10.70;;;5.65;;
38859;SDS011;24609;48.316;16.174;2022-12-07T06:27:36;9.13;;;4.88;;
38859;SDS011;24609;48.316;16.174;2022-12-07T06:30:02;8.27;;;4.75;;
38859;SDS011;24609;48.316;16.174;2022-12-07T06:32:38;10.73;;;5.60;;
38859;SDS011;24609;48.316;16.174;2022-12-07T06:35:04;13.10;;;5.32;;
38859;SDS011;24609;48.316;16.174;2022-12-07T06:37:29;12.93;;;5.38;;
38859;SDS011;24609;48.316;16.174;2022-12-07T06:39:55;8.57;;;5.35;;
38859;SDS011;24609;48.316;16.174;2022-12-07T06:42:21;8.75;;;5.22;;
38859;SDS011;24609;48.316;16.174;2022-12-07T06:44:47;12.10;;;5.93;;
38859;SDS011;24609;48.316;16.174;2022-12-07T06:47:12;10.82;;;5.07;;
38859;SDS011;24609;48.316;16.174;2022-12-07T06:49:38;5.90;;;4.20;;
38859;SDS011;24609;48.316;16.174;2022-12-07T06:52:04;9.40;;;4.65;;
38859;SDS011;24609;48.316;16.174;2022-12-07T06:54:30;9.55;;;4.97;;
38859;SDS011;24609;48.316;16.174;2022-12-07T06:56:56;10.50;;;5.72;;
38859;SDS011;24609;48.316;16.174;2022-12-07T06:59:21;8.98;;;5.10;;
38859;SDS011;24609;48.316;16.174;2022-12-07T07:01:47;15.38;;;5.63;;
38859;SDS011;24609;48.316;16.174;2022-12-07T07:04:13;11.00;;;5.97;;
38859;SDS011;24609;48.316;16.174;2022-12-07T07:06:39;8.38;;;4.68;;
38859;SDS011;24609;48.316;16.174;2022-12-07T07:09:04;10.15;;;4.60;;
38859;SDS011;24609;48.316;16.174;2022-12-07T07:11:30;9.25;;;4.85;;
38859;SDS011;24609;48.316;16.174;2022-12-07T07:13:56;7.78;;;4.45;;
38859;SDS011;24609;48.316;16.174;2022-12-07T07:16:24;11.25;;;5.72;;
38859;SDS011;24609;48.316;16.174;2022-12-07T07:18:49;7.32;;;4.35;;
38859;SDS011;24609;48.316;16.174;2022-12-07T07:21:15;10.00;;;5.15;;
38859;SDS011;24609;48.316;16.174;2022-12-07T07:23:41;11.77;;;3.95;;
38859;SDS011;24609;48.316;16.174;2022-12-07T07:26:06;5.88;;;4.45;;
38859;SDS011;24609;48.316;16.174;2022-12-07T07:28:32;12.23;;;5.40;;
38859;SDS011;24609;48.316;16.174;2022-12-07T07:30:58;9.60;;;5.57;;
38859;SDS011;24609;48.316;16.174;2022-12-07T07:33:23;10.57;;;5.05;;
38859;SDS011;24609;48.316;16.174;2022-12-07T07:35:49;8.00;;;4.25;;
38859;SDS011;24609;48.316;16.174;2022-12-07T07:38:15;9.80;;;4.80;;
38859;SDS011;24609;48.316;16.174;2022-12-07T07:40:40;8.98;;;4.63;;
38859;SDS011;24609;48.316;16.174;2022-12-07T07:43:06;9.68;;;5.10;;
38859;SDS011;24609;48.316;16.174;2022-12-07T07:45:32;6.70;;;4.35;;
38859;SDS011;24609;48.316;16.174;2022-12-07T07:47:57;9.65;;;4.30;;
38859;SDS011;24609;48.316;16.174;2022-12-07T07:50:23;4.85;;;4.07;;
38859;SDS011;24609;48.316;16.174;2022-12-07T07:52:49;8.82;;;4.30;;
38859;SDS011;24609;48.316;16.174;2022-12-07T07:55:15;10.30;;;5.53;;
38859;SDS011;24609;48.316;16.174;2022-12-07T07:57:40;6.35;;;3.97;;
38859;SDS011;24609;48.316;16.174;2022-12-07T08:00:07;5.55;;;3.55;;
38859;SDS011;24609;48.316;16.174;2022-12-07T08:02:37;7.85;;;4.18;;
38859;SDS011;24609;48.316;16.174;2022-12-07T08:05:03;8.98;;;4.47;;
38859;SDS011;24609;48.316;16.174;2022-12-07T08:07:29;8.32;;;5.07;;
38859;SDS011;24609;48.316;16.174;2022-12-07T08:09:55;6.80;;;3.55;;
38859;SDS011;24609;48.316;16.174;2022-12-07T08:12:20;8.70;;;4.47;;
38859;SDS011;24609;48.316;16.174;2022-12-07T08:14:46;12.60;;;5.47;;
38859;SDS011;24609;48.316;16.174;2022-12-07T08:17:12;9.25;;;4.28;;
38859;SDS011;24609;48.316;16.174;2022-12-07T08:19:37;8.65;;;4.10;;
38859;SDS011;24609;48.316;16.174;2022-12-07T08:22:03;6.60;;;3.88;;
38859;SDS011;24609;48.316;16.174;2022-12-07T08:24:29;8.30;;;3.80;;
38859;SDS011;24609;48.316;16.174;2022-12-07T08:26:54;7.20;;;4.15;;
38859;SDS011;24609;48.316;16.174;2022-12-07T08:29:20;7.20;;;3.90;;
38859;SDS011;24609;48.316;16.174;2022-12-07T08:31:46;5.90;;;3.83;;
38859;SDS011;24609;48.316;16.174;2022-12-07T08:34:12;7.97;;;3.28;;
38859;SDS011;24609;48.316;16.174;2022-12-07T08:36:38;9.15;;;3.80;;
38859;SDS011;24609;48.316;16.174;2022-12-07T08:39:04;7.43;;;4.10;;
38859;SDS011;24609;48.316;16.174;2022-12-07T08:41:30;6.30;;;3.67;;
38859;SDS011;24609;48.316;16.174;2022-12-07T08:43:56;5.38;;;3.83;;
38859;SDS011;24609;48.316;16.174;2022-12-07T08:46:30;9.07;;;3.63;;
38859;SDS011;24609;48.316;16.174;2022-12-07T08:49:22;5.93;;;3.35;;
38859;SDS011;24609;48.316;16.174;2022-12-07T08:51:55;9.88;;;5.13;;
38859;SDS011;24609;48.316;16.174;2022-12-07T08:54:21;8.82;;;3.47;;
38859;SDS011;24609;48.316;16.174;2022-12-07T08:56:47;6.75;;;4.60;;
38859;SDS011;24609;48.316;16.174;2022-12-07T09:01:42;6.65;;;3.42;;
38859;SDS011;24609;48.316;16.174;2022-12-07T09:04:08;8.48;;;4.63;;
38859;SDS011;24609;48.316;16.174;2022-12-07T09:06:34;7.18;;;4.20;;
38859;SDS011;24609;48.316;16.174;2022-12-07T09:09:00;6.35;;;3.50;;
38859;SDS011;24609;48.316;16.174;2022-12-07T09:11:27;7.25;;;3.85;;
38859;SDS011;24609;48.316;16.174;2022-12-07T09:13:52;10.95;;;3.85;;
38859;SDS011;24609;48.316;16.174;2022-12-07T09:16:18;6.47;;;3.92;;
38859;SDS011;24609;48.316;16.174;2022-12-07T09:18:44;7.60;;;4.25;;
38859;SDS011;24609;48.316;16.174;2022-12-07T09:21:09;10.10;;;3.78;;
38859;SDS011;24609;48.316;16.174;2022-12-07T09:23:35;8.70;;;4.00;;
38859;SDS011;24609;48.316;16.174;2022-12-07T09:26:02;5.55;;;3.53;;
38859;SDS011;24609;48.316;16.174;2022-12-07T09:28:32;6.22;;;3.92;;
38859;SDS011;24609;48.316;16.174;2022-12-07T09:30:58;9.55;;;4.28;;
38859;SDS011;24609;48.316;16.174;2022-12-07T09:33:24;6.43;;;4.35;;
38859;SDS011;24609;48.316;16.174;2022-12-07T09:35:50;5.93;;;3.70;;
38859;SDS011;24609;48.316;16.174;2022-12-07T09:38:17;7.75;;;4.95;;
38859;SDS011;24609;48.316;16.174;2022-12-07T09:40:43;8.45;;;4.15;;
38859;SDS011;24609;48.316;16.174;2022-12-07T09:43:22;6.72;;;4.20;;
38859;SDS011;24609;48.316;16.174;2022-12-07T09:45:50;8.85;;;4.45;;
38859;SDS011;24609;48.316;16.174;2022-12-07T09:48:20;7.07;;;4.50;;
38859;SDS011;24609;48.316;16.174;2022-12-07T09:50:53;8.60;;;3.95;;
38859;SDS011;24609;48.316;16.174;2022-12-07T09:53:28;7.13;;;4.60;;
38859;SDS011;24609;48.316;16.174;2022-12-07T09:55:58;7.10;;;4.07;;
38859;SDS011;24609;48.316;16.174;2022-12-07T09:58:26;5.93;;;4.15;;
38859;SDS011;24609;48.316;16.174;2022-12-07T10:00:54;5.38;;;3.72;;
38859;SDS011;24609;48.316;16.174;2022-12-07T10:03:23;5.80;;;4.10;;
38859;SDS011;24609;48.316;16.174;2022-12-07T10:05:52;6.60;;;3.50;;
38859;SDS011;24609;48.316;16.174;2022-12-07T10:08:18;8.25;;;4.45;;
38859;SDS011;24609;48.316;16.174;2022-12-07T10:10:44;6.35;;;3.80;;
38859;SDS011;24609;48.316;16.174;2022-12-07T10:13:14;6.05;;;4.03;;
38859;SDS011;24609;48.316;16.174;2022-12-07T10:15:45;7.18;;;3.42;;
38859;SDS011;24609;48.316;16.174;2022-12-07T10:18:17;6.55;;;4.18;;
38859;SDS011;24609;48.316;16.174;2022-12-07T10:23:37;5.50;;;3.70;;
38859;SDS011;24609;48.316;16.174;2022-12-07T10:29:16;7.55;;;3.58;;
38859;SDS011;24609;48.316;16.174;2022-12-07T10:32:02;6.60;;;3.70;;
38859;SDS011;24609;48.316;16.174;2022-12-07T10:34:49;4.88;;;3.35;;
38859;SDS011;24609;48.316;16.174;2022-12-07T10:37:19;7.22;;;4.05;;
38859;SDS011;24609;48.316;16.174;2022-12-07T10:39:46;7.32;;;4.18;;
38859;SDS011;24609;48.316;16.174;2022-12-07T10:42:20;7.10;;;3.80;;
38859;SDS011;24609;48.316;16.174;2022-12-07T10:44:47;6.82;;;3.80;;
38859;SDS011;24609;48.316;16.174;2022-12-07T10:47:17;5.22;;;3.80;;
38859;SDS011;24609;48.316;16.174;2022-12-07T10:52:25;5.90;;;3.30;;
38859;SDS011;24609;48.316;16.174;2022-12-07T11:00:41;6.80;;;4.30;;
38859;SDS011;24609;48.316;16.174;2022-12-07T11:11:19;6.15;;;3.78;;
38859;SDS011;24609;48.316;16.174;2022-12-07T11:21:58;4.80;;;3.30;;
38859;SDS011;24609;48.316;16.174;2022-12-07T11:25:03;4.80;;;3.45;;
38859;SDS011;24609;48.316;16.174;2022-12-07T11:27:45;5.97;;;3.65;;
38859;SDS011;24609;48.316;16.174;2022-12-07T11:30:22;6.28;;;2.90;;
38859;SDS011;24609;48.316;16.174;2022-12-07T11:38:49;5.80;;;3.20;;
38859;SDS011;24609;48.316;16.174;2022-12-07T11:41:28;4.30;;;2.80;;
38859;SDS011;24609;48.316;16.174;2022-12-07T11:44:07;5.63;;;3.33;;
38859;SDS011;24609;48.316;16.174;2022-12-07T11:46:50;4.97;;;2.95;;
38859;SDS011;24609;48.316;16.174;2022-12-07T11:49:26;5.38;;;3.22;;
38859;SDS011;24609;48.316;16.174;2022-12-07T11:52:16;6.28;;;4.07;;
38859;SDS011;24609;48.316;16.174;2022-12-07T11:54:52;7.00;;;3.08;;
38859;SDS011;24609;48.316;16.174;2022-12-07T11:57:27;5.50;;;2.78;;
38859;SDS011;24609;48.316;16.174;2022-12-07T12:00:17;6.07;;;3.50;;
38859;SDS011;24609;48.316;16.174;2022-12-07T12:05:25;6.00;;;3.45;;
38859;SDS011;24609;48.316;16.174;2022-12-07T12:07:59;8.15;;;3.03;;
38859;SDS011;24609;48.316;16.174;2022-12-07T12:19:03;5.13;;;2.53;;
38859;SDS011;24609;48.316;16.174;2022-12-07T12:21:31;5.70;;;3.00;;
38859;SDS011;24609;48.316;16.174;2022-12-07T12:24:03;7.18;;;3.38;;
38859;SDS011;24609;48.316;16.174;2022-12-07T12:26:40;3.70;;;2.65;;
38859;SDS011;24609;48.316;16.174;2022-12-07T12:29:20;8.30;;;4.05;;
38859;SDS011;24609;48.316;16.174;2022-12-07T12:32:06;4.97;;;3.08;;
38859;SDS011;24609;48.316;16.174;2022-12-07T12:34:40;5.90;;;3.03;;
38859;SDS011;24609;48.316;16.174;2022-12-07T12:42:44;7.25;;;3.42;;
38859;SDS011;24609;48.316;16.174;2022-12-07T12:45:25;10.23;;;3.60;;
38859;SDS011;24609;48.316;16.174;2022-12-07T12:52:58;9.30;;;4.10;;
38859;SDS011;24609;48.316;16.174;2022-12-07T12:55:47;6.68;;;3.80;;
38859;SDS011;24609;48.316;16.174;2022-12-07T12:58:37;5.72;;;3.53;;
38859;SDS011;24609;48.316;16.174;2022-12-07T13:04:01;5.68;;;3.65;;
38859;SDS011;24609;48.316;16.174;2022-12-07T13:08:54;6.10;;;3.47;;
38859;SDS011;24609;48.316;16.174;2022-12-07T13:11:31;5.40;;;3.60;;
38859;SDS011;24609;48.316;16.174;2022-12-07T13:17:02;7.65;;;3.03;;
38859;SDS011;24609;48.316;16.174;2022-12-07T13:28:00;9.50;;;5.18;;
38859;SDS011;24609;48.316;16.174;2022-12-07T13:30:34;5.47;;;3.30;;
38859;SDS011;24609;48.316;16.174;2022-12-07T13:33:28;7.35;;;3.65;;
38859;SDS011;24609;48.316;16.174;2022-12-07T13:35:54;6.40;;;3.38;;
38859;SDS011;24609;48.316;16.174;2022-12-07T13:38:31;6.30;;;3.28;;
38859;SDS011;24609;48.316;16.174;2022-12-07T13:41:12;6.38;;;3.25;;
38859;SDS011;24609;48.316;16.174;2022-12-07T13:43:43;8.05;;;4.22;;
38859;SDS011;24609;48.316;16.174;2022-12-07T13:46:10;7.05;;;4.03;;
38859;SDS011;24609;48.316;16.174;2022-12-07T13:48:48;9.48;;;4.00;;
38859;SDS011;24609;48.316;16.174;2022-12-07T13:51:25;9.95;;;4.00;;
38859;SDS011;24609;48.316;16.174;2022-12-07T13:53:53;5.20;;;3.00;;
38859;SDS011;24609;48.316;16.174;2022-12-07T13:56:26;8.55;;;3.80;;
38859;SDS011;24609;48.316;16.174;2022-12-07T13:59:00;10.77;;;4.75;;
38859;SDS011;24609;48.316;16.174;2022-12-07T14:01:26;6.78;;;3.75;;
38859;SDS011;24609;48.316;16.174;2022-12-07T14:03:52;8.00;;;3.17;;
38859;SDS011;24609;48.316;16.174;2022-12-07T14:06:25;7.03;;;3.93;;
38859;SDS011;24609;48.316;16.174;2022-12-07T14:09:06;4.57;;;3.58;;
38859;SDS011;24609;48.316;16.174;2022-12-07T14:11:42;5.88;;;3.30;;
38859;SDS011;24609;48.316;16.174;2022-12-07T14:14:10;6.50;;;3.47;;
38859;SDS011;24609;48.316;16.174;2022-12-07T14:16:42;4.00;;;2.97;;
38859;SDS011;24609;48.316;16.174;2022-12-07T14:22:15;7.90;;;4.25;;
38859;SDS011;24609;48.316;16.174;2022-12-07T14:27:38;9.10;;;4.95;;
38859;SDS011;24609;48.316;16.174;2022-12-07T14:30:05;7.32;;;4.00;;
38859;SDS011;24609;48.316;16.174;2022-12-07T14:32:31;8.80;;;4.18;;
38859;SDS011;24609;48.316;16.174;2022-12-07T14:37:26;9.75;;;4.82;;
38859;SDS011;24609;48.316;16.174;2022-12-07T14:39:53;9.23;;;3.80;;
38859;SDS011;24609;48.316;16.174;2022-12-07T14:42:19;7.22;;;3.28;;
38859;SDS011;24609;48.316;16.174;2022-12-07T14:44:45;5.75;;;3.75;;
38859;SDS011;24609;48.316;16.174;2022-12-07T14:47:11;9.20;;;4.45;;
38859;SDS011;24609;48.316;16.174;2022-12-07T14:49:37;6.93;;;3.92;;
38859;SDS011;24609;48.316;16.174;2022-12-07T14:52:03;6.45;;;3.30;;
38859;SDS011;24609;48.316;16.174;2022-12-07T14:54:30;7.82;;;4.30;;
38859;SDS011;24609;48.316;16.174;2022-12-07T14:56:57;7.72;;;4.28;;
38859;SDS011;24609;48.316;16.174;2022-12-07T14:59:23;6.40;;;3.75;;
38859;SDS011;24609;48.316;16.174;2022-12-07T15:01:49;6.18;;;4.53;;
38859;SDS011;24609;48.316;16.174;2022-12-07T15:04:15;6.32;;;4.15;;
38859;SDS011;24609;48.316;16.174;2022-12-07T15:06:40;7.45;;;4.05;;
38859;SDS011;24609;48.316;16.174;2022-12-07T15:09:09;7.45;;;4.72;;
38859;SDS011;24609;48.316;16.174;2022-12-07T15:11:36;4.60;;;3.22;;
38859;SDS011;24609;48.316;16.174;2022-12-07T15:14:02;8.23;;;4.25;;
38859;SDS011;24609;48.316;16.174;2022-12-07T15:16:34;5.72;;;4.05;;
38859;SDS011;24609;48.316;16.174;2022-12-07T15:19:01;8.10;;;4.40;;
38859;SDS011;24609;48.316;16.174;2022-12-07T15:21:27;10.32;;;4.72;;
38859;SDS011;24609;48.316;16.174;2022-12-07T15:23:53;11.05;;;4.82;;
38859;SDS011;24609;48.316;16.174;2022-12-07T15:26:18;6.65;;;3.22;;
38859;SDS011;24609;48.316;16.174;2022-12-07T15:28:44;8.15;;;4.75;;
38859;SDS011;24609;48.316;16.174;2022-12-07T15:31:16;9.27;;;4.88;;
38859;SDS011;24609;48.316;16.174;2022-12-07T15:33:43;7.38;;;4.00;;
38859;SDS011;24609;48.316;16.174;2022-12-07T15:36:12;8.30;;;4.32;;
38859;SDS011;24609;48.316;16.174;2022-12-07T15:38:46;9.63;;;3.92;;
38859;SDS011;24609;48.316;16.174;2022-12-07T15:41:12;11.00;;;5.28;;
38859;SDS011;24609;48.316;16.174;2022-12-07T15:43:38;10.77;;;4.93;;
38859;SDS011;24609;48.316;16.174;2022-12-07T15:46:22;9.65;;;4.15;;
38859;SDS011;24609;48.316;16.174;2022-12-07T15:48:48;5.72;;;3.83;;
38859;SDS011;24609;48.316;16.174;2022-12-07T15:51:14;6.65;;;3.40;;
38859;SDS011;24609;48.316;16.174;2022-12-07T15:53:39;8.40;;;3.67;;
38859;SDS011;24609;48.316;16.174;2022-12-07T15:56:05;6.55;;;4.28;;
38859;SDS011;24609;48.316;16.174;2022-12-07T15:58:32;5.65;;;4.07;;
38859;SDS011;24609;48.316;16.174;2022-12-07T16:00:58;8.40;;;4.53;;
38859;SDS011;24609;48.316;16.174;2022-12-07T16:03:24;11.00;;;4.18;;
38859;SDS011;24609;48.316;16.174;2022-12-07T16:05:50;6.07;;;3.58;;
38859;SDS011;24609;48.316;16.174;2022-12-07T16:08:17;10.32;;;4.40;;
38859;SDS011;24609;48.316;16.174;2022-12-07T16:10:42;9.48;;;4.45;;
38859;SDS011;24609;48.316;16.174;2022-12-07T16:13:08;11.40;;;4.30;;
38859;SDS011;24609;48.316;16.174;2022-12-07T16:15:41;9.52;;;5.00;;
38859;SDS011;24609;48.316;16.174;2022-12-07T16:18:07;6.28;;;3.50;;
38859;SDS011;24609;48.316;16.174;2022-12-07T16:20:33;7.05;;;5.20;;
38859;SDS011;24609;48.316;16.174;2022-12-07T16:22:59;9.52;;;4.20;;
38859;SDS011;24609;48.316;16.174;2022-12-07T16:25:25;7.82;;;4.53;;
38859;SDS011;24609;48.316;16.174;2022-12-07T16:27:51;6.38;;;3.65;;
38859;SDS011;24609;48.316;16.174;2022-12-07T16:30:17;10.20;;;3.78;;
38859;SDS011;24609;48.316;16.174;2022-12-07T16:32:43;10.20;;;4.80;;
38859;SDS011;24609;48.316;16.174;2022-12-07T16:35:10;8.75;;;4.47;;
38859;SDS011;24609;48.316;16.174;2022-12-07T16:37:36;8.30;;;4.53;;
38859;SDS011;24609;48.316;16.174;2022-12-07T16:40:02;8.10;;;4.65;;